createdAt,value
2018-07-10T00:00:59.938Z,1009.48
2018-07-10T00:01:59.940Z,1009.46
2018-07-10T00:02:59.940Z,1009.42
2018-07-10T00:03:59.940Z,1009.41
2018-07-10T00:04:59.938Z,1009.38
2018-07-10T00:05:59.941Z,1009.36
2018-07-10T00:06:59.941Z,1009.36
2018-07-10T00:07:59.950Z,1009.38
2018-07-10T00:08:59.943Z,1009.35
2018-07-10T00:09:59.942Z,1009.39
2018-07-10T00:10:59.943Z,1009.38
2018-07-10T00:11:59.943Z,1009.41
2018-07-10T00:12:59.942Z,1009.39
2018-07-10T00:13:59.945Z,1009.35
2018-07-10T00:14:59.946Z,1009.30
2018-07-10T00:15:59.945Z,1009.34
2018-07-10T00:16:59.945Z,1009.31
2018-07-10T00:17:59.951Z,1009.36
2018-07-10T00:18:59.948Z,1009.33
2018-07-10T00:19:59.947Z,1009.36
2018-07-10T00:20:59.948Z,1009.33
2018-07-10T00:21:59.947Z,1009.31
2018-07-10T00:22:59.947Z,1009.26
2018-07-10T00:23:59.951Z,1009.30
2018-07-10T00:24:59.948Z,1009.28
2018-07-10T00:25:59.949Z,1009.30
2018-07-10T00:26:59.951Z,1009.29
2018-07-10T00:27:59.954Z,1009.28
2018-07-10T00:28:59.950Z,1009.28
2018-07-10T00:29:59.950Z,1009.26
2018-07-10T00:30:59.951Z,1009.26
2018-07-10T00:31:59.952Z,1009.22
2018-07-10T00:32:59.952Z,1009.20
2018-07-10T00:33:59.951Z,1009.21
2018-07-10T00:34:59.952Z,1009.21
2018-07-10T00:35:59.954Z,1009.19
2018-07-10T00:36:59.954Z,1009.17
2018-07-10T00:37:59.954Z,1009.20
2018-07-10T00:38:59.955Z,1009.18
2018-07-10T00:39:59.956Z,1009.17
2018-07-10T00:40:59.955Z,1009.09
2018-07-10T00:41:59.955Z,1009.12
2018-07-10T00:42:59.956Z,1009.10
2018-07-10T00:43:59.959Z,1009.13
2018-07-10T00:44:59.956Z,1009.10
2018-07-10T00:45:59.956Z,1009.11
2018-07-10T00:46:59.956Z,1009.12
2018-07-10T00:47:59.958Z,1009.13
2018-07-10T00:48:59.959Z,1009.07
2018-07-10T00:49:59.959Z,1009.07
2018-07-10T00:50:59.959Z,1009.08
2018-07-10T00:51:59.960Z,1009.04
2018-07-10T00:52:59.959Z,1009.00
2018-07-10T00:53:59.961Z,1009.02
2018-07-10T00:54:59.966Z,1009.03
2018-07-10T00:55:59.962Z,1008.98
2018-07-10T00:56:59.960Z,1009.03
2018-07-10T00:57:59.961Z,1009.00
2018-07-10T00:58:59.963Z,1008.98
2018-07-10T00:59:59.963Z,1008.97
2018-07-10T01:00:59.963Z,1008.97
2018-07-10T01:01:59.961Z,1008.94
2018-07-10T01:02:59.962Z,1008.93
2018-07-10T01:03:59.963Z,1008.96
2018-07-10T01:04:59.962Z,1008.97
2018-07-10T01:05:59.963Z,1008.97
2018-07-10T01:06:59.965Z,1008.93
2018-07-10T01:07:59.964Z,1008.89
2018-07-10T01:08:59.966Z,1008.90
2018-07-10T01:09:59.965Z,1008.93
2018-07-10T01:10:59.967Z,1008.87
2018-07-10T01:11:59.965Z,1008.93
2018-07-10T01:12:59.965Z,1008.88
2018-07-10T01:13:59.967Z,1008.90
2018-07-10T01:14:59.968Z,1008.90
2018-07-10T01:15:59.969Z,1008.90
2018-07-10T01:16:59.966Z,1008.95
2018-07-10T01:17:59.966Z,1008.96
2018-07-10T01:19:00.038Z,1008.92
2018-07-10T01:19:59.967Z,1008.87
2018-07-10T01:20:59.969Z,1008.88
2018-07-10T01:21:59.968Z,1008.90
2018-07-10T01:22:59.968Z,1008.85
2018-07-10T01:23:59.968Z,1008.88
2018-07-10T01:24:59.967Z,1008.84
2018-07-10T01:25:59.969Z,1008.79
2018-07-10T01:26:59.970Z,1008.89
2018-07-10T01:27:59.971Z,1008.85
2018-07-10T01:28:59.971Z,1008.88
2018-07-10T01:29:59.969Z,1008.86
2018-07-10T01:30:59.970Z,1008.84
2018-07-10T01:31:59.970Z,1008.87
2018-07-10T01:32:59.972Z,1008.83
2018-07-10T01:33:59.971Z,1008.85
2018-07-10T01:34:59.971Z,1008.91
2018-07-10T01:35:59.972Z,1008.85
2018-07-10T01:36:59.972Z,1008.88
2018-07-10T01:37:59.971Z,1008.85
2018-07-10T01:38:59.973Z,1008.87
2018-07-10T01:39:59.973Z,1008.86
2018-07-10T01:40:59.972Z,1008.87
2018-07-10T01:41:59.973Z,1008.85
2018-07-10T01:42:59.972Z,1008.87
2018-07-10T01:43:59.974Z,1008.89
2018-07-10T01:44:59.972Z,1008.88
2018-07-10T01:45:59.975Z,1008.86
2018-07-10T01:46:59.974Z,1008.83
2018-07-10T01:47:59.975Z,1008.85
2018-07-10T01:48:59.974Z,1008.79
2018-07-10T01:49:59.973Z,1008.72
2018-07-10T01:51:00.026Z,1008.72
2018-07-10T01:51:59.980Z,1008.75
2018-07-10T01:52:59.976Z,1008.73
2018-07-10T01:53:59.975Z,1008.63
2018-07-10T01:54:59.976Z,1008.64
2018-07-10T01:55:59.977Z,1008.66
2018-07-10T01:56:59.975Z,1008.63
2018-07-10T01:57:59.977Z,1008.63
2018-07-10T01:58:59.976Z,1008.61
2018-07-10T01:59:59.978Z,1008.61
2018-07-10T02:00:59.976Z,1008.58
2018-07-10T02:01:59.976Z,1008.60
2018-07-10T02:02:59.978Z,1008.53
2018-07-10T02:03:59.978Z,1008.57
2018-07-10T02:04:59.977Z,1008.54
2018-07-10T02:05:59.980Z,1008.50
2018-07-10T02:06:59.978Z,1008.54
2018-07-10T02:07:59.978Z,1008.54
2018-07-10T02:08:59.978Z,1008.54
2018-07-10T02:09:59.977Z,1008.59
2018-07-10T02:10:59.979Z,1008.58
2018-07-10T02:11:59.979Z,1008.57
2018-07-10T02:12:59.978Z,1008.60
2018-07-10T02:14:00.034Z,1008.55
2018-07-10T02:14:59.982Z,1008.55
2018-07-10T02:15:59.978Z,1008.56
2018-07-10T02:16:59.979Z,1008.53
2018-07-10T02:17:59.977Z,1008.58
2018-07-10T02:18:59.979Z,1008.55
2018-07-10T02:19:59.978Z,1008.55
2018-07-10T02:20:59.979Z,1008.53
2018-07-10T02:21:59.977Z,1008.49
2018-07-10T02:22:59.978Z,1008.46
2018-07-10T02:23:59.978Z,1008.43
2018-07-10T02:24:59.978Z,1008.44
2018-07-10T02:25:59.976Z,1008.43
2018-07-10T02:26:59.976Z,1008.42
2018-07-10T02:27:59.977Z,1008.40
2018-07-10T02:28:59.976Z,1008.35
2018-07-10T02:29:59.976Z,1008.32
2018-07-10T02:30:59.975Z,1008.31
2018-07-10T02:31:59.976Z,1008.30
2018-07-10T02:32:59.975Z,1008.29
2018-07-10T02:33:59.976Z,1008.24
2018-07-10T02:34:59.975Z,1008.24
2018-07-10T02:35:59.976Z,1008.21
2018-07-10T02:36:59.974Z,1008.30
2018-07-10T02:37:59.975Z,1008.27
2018-07-10T02:38:59.974Z,1008.25
2018-07-10T02:39:59.974Z,1008.25
2018-07-10T02:40:59.974Z,1008.32
2018-07-10T02:41:59.973Z,1008.32
2018-07-10T02:42:59.972Z,1008.36
2018-07-10T02:43:59.976Z,1008.32
2018-07-10T02:44:59.976Z,1008.34
2018-07-10T02:45:59.972Z,1008.34
2018-07-10T02:46:59.973Z,1008.37
2018-07-10T02:47:59.973Z,1008.38
2018-07-10T02:48:59.971Z,1008.42
2018-07-10T02:49:59.971Z,1008.42
2018-07-10T02:50:59.970Z,1008.39
2018-07-10T02:51:59.971Z,1008.42
2018-07-10T02:52:59.969Z,1008.42
2018-07-10T02:53:59.969Z,1008.41
2018-07-10T02:54:59.969Z,1008.40
2018-07-10T02:55:59.969Z,1008.45
2018-07-10T02:56:59.968Z,1008.38
2018-07-10T02:57:59.969Z,1008.33
2018-07-10T02:58:59.973Z,1008.30
2018-07-10T02:59:59.967Z,1008.27
2018-07-10T03:00:59.976Z,1008.25
2018-07-10T03:01:59.964Z,1008.27
2018-07-10T03:02:59.966Z,1008.21
2018-07-10T03:03:59.965Z,1008.19
2018-07-10T03:04:59.963Z,1008.20
2018-07-10T03:05:59.965Z,1008.17
2018-07-10T03:06:59.964Z,1008.11
2018-07-10T03:07:59.966Z,1008.08
2018-07-10T03:08:59.964Z,1008.03
2018-07-10T03:09:59.962Z,1008.08
2018-07-10T03:10:59.965Z,1008.06
2018-07-10T03:11:59.962Z,1008.09
2018-07-10T03:12:59.961Z,1008.10
2018-07-10T03:13:59.962Z,1008.09
2018-07-10T03:14:59.960Z,1008.14
2018-07-10T03:15:59.959Z,1008.16
2018-07-10T03:16:59.959Z,1008.21
2018-07-10T03:17:59.958Z,1008.21
2018-07-10T03:18:59.959Z,1008.20
2018-07-10T03:19:59.958Z,1008.22
2018-07-10T03:20:59.959Z,1008.25
2018-07-10T03:21:59.957Z,1008.24
2018-07-10T03:22:59.959Z,1008.26
2018-07-10T03:23:59.956Z,1008.32
2018-07-10T03:24:59.956Z,1008.30
2018-07-10T03:25:59.954Z,1008.34
2018-07-10T03:26:59.960Z,1008.33
2018-07-10T03:27:59.955Z,1008.28
2018-07-10T03:28:59.954Z,1008.30
2018-07-10T03:29:59.953Z,1008.32
2018-07-10T03:30:59.960Z,1008.30
2018-07-10T03:31:59.953Z,1008.26
2018-07-10T03:32:59.952Z,1008.31
2018-07-10T03:33:59.951Z,1008.26
2018-07-10T03:34:59.951Z,1008.29
2018-07-10T03:35:59.977Z,1008.31
2018-07-10T03:36:59.951Z,1008.27
2018-07-10T03:37:59.949Z,1008.27
2018-07-10T03:38:59.949Z,1008.25
2018-07-10T03:39:59.950Z,1008.27
2018-07-10T03:40:59.947Z,1008.26
2018-07-10T03:41:59.947Z,1008.26
2018-07-10T03:42:59.947Z,1008.23
2018-07-10T03:43:59.946Z,1008.29
2018-07-10T03:44:59.949Z,1008.25
2018-07-10T03:45:59.945Z,1008.24
2018-07-10T03:46:59.946Z,1008.25
2018-07-10T03:47:59.946Z,1008.24
2018-07-10T03:48:59.943Z,1008.20
2018-07-10T03:49:59.943Z,1008.19
2018-07-10T03:50:59.943Z,1008.20
2018-07-10T03:51:59.943Z,1008.21
2018-07-10T03:52:59.942Z,1008.21
2018-07-10T03:53:59.941Z,1008.21
2018-07-10T03:54:59.940Z,1008.22
2018-07-10T03:55:59.941Z,1008.21
2018-07-10T03:56:59.939Z,1008.24
2018-07-10T03:57:59.940Z,1008.16
2018-07-10T03:58:59.940Z,1008.20
2018-07-10T03:59:59.941Z,1008.15
2018-07-10T04:00:59.938Z,1008.12
2018-07-10T04:01:59.937Z,1008.19
2018-07-10T04:02:59.938Z,1008.20
2018-07-10T04:03:59.938Z,1008.22
2018-07-10T04:04:59.936Z,1008.18
2018-07-10T04:05:59.936Z,1008.16
2018-07-10T04:06:59.936Z,1008.14
2018-07-10T04:07:59.935Z,1008.19
2018-07-10T04:08:59.941Z,1008.19
2018-07-10T04:09:59.932Z,1008.22
2018-07-10T04:10:59.933Z,1008.19
2018-07-10T04:11:59.933Z,1008.19
2018-07-10T04:12:59.932Z,1008.19
2018-07-10T04:13:59.933Z,1008.19
2018-07-10T04:14:59.932Z,1008.16
2018-07-10T04:15:59.932Z,1008.14
2018-07-10T04:16:59.931Z,1008.09
2018-07-10T04:17:59.932Z,1008.07
2018-07-10T04:18:59.929Z,1008.05
2018-07-10T04:19:59.930Z,1008.01
2018-07-10T04:20:59.928Z,1007.96
2018-07-10T04:21:59.928Z,1007.96
2018-07-10T04:22:59.929Z,1007.91
2018-07-10T04:23:59.929Z,1007.93
2018-07-10T04:24:59.927Z,1007.88
2018-07-10T04:25:59.928Z,1007.91
2018-07-10T04:26:59.925Z,1007.92
2018-07-10T04:27:59.926Z,1007.91
2018-07-10T04:28:59.979Z,1007.91
2018-07-10T04:29:59.924Z,1007.88
2018-07-10T04:30:59.926Z,1007.86
2018-07-10T04:31:59.925Z,1007.94
2018-07-10T04:32:59.924Z,1007.90
2018-07-10T04:33:59.922Z,1007.89
2018-07-10T04:34:59.924Z,1007.93
2018-07-10T04:35:59.925Z,1007.90
2018-07-10T04:36:59.922Z,1007.89
2018-07-10T04:37:59.921Z,1007.93
2018-07-10T04:38:59.922Z,1007.91
2018-07-10T04:39:59.921Z,1007.88
2018-07-10T04:40:59.921Z,1007.92
2018-07-10T04:41:59.920Z,1007.89
2018-07-10T04:42:59.921Z,1007.91
2018-07-10T04:43:59.920Z,1007.90
2018-07-10T04:44:59.919Z,1007.86
2018-07-10T04:45:59.922Z,1007.81
2018-07-10T04:46:59.920Z,1007.82
2018-07-10T04:47:59.918Z,1007.78
2018-07-10T04:48:59.934Z,1007.75
2018-07-10T04:49:59.918Z,1007.83
2018-07-10T04:50:59.917Z,1007.80
2018-07-10T04:51:59.919Z,1007.81
2018-07-10T04:52:59.918Z,1007.87
2018-07-10T04:53:59.917Z,1007.80
2018-07-10T04:54:59.918Z,1007.84
2018-07-10T04:55:59.917Z,1007.83
2018-07-10T04:56:59.918Z,1007.81
2018-07-10T04:57:59.917Z,1007.84
2018-07-10T04:58:59.917Z,1007.79
2018-07-10T04:59:59.919Z,1007.79
2018-07-10T05:00:59.916Z,1007.80
2018-07-10T05:01:59.917Z,1007.81
2018-07-10T05:02:59.920Z,1007.84
2018-07-10T05:03:59.919Z,1007.83
2018-07-10T05:04:59.918Z,1007.86
2018-07-10T05:05:59.933Z,1007.84
2018-07-10T05:06:59.917Z,1007.88
2018-07-10T05:07:59.918Z,1007.84
2018-07-10T05:08:59.915Z,1007.85
2018-07-10T05:09:59.917Z,1007.80
2018-07-10T05:10:59.916Z,1007.84
2018-07-10T05:11:59.953Z,1007.80
2018-07-10T05:12:59.916Z,1007.77
2018-07-10T05:13:59.918Z,1007.76
2018-07-10T05:14:59.918Z,1007.82
2018-07-10T05:15:59.917Z,1007.73
2018-07-10T05:16:59.917Z,1007.74
2018-07-10T05:17:59.917Z,1007.79
2018-07-10T05:18:59.915Z,1007.74
2018-07-10T05:19:59.917Z,1007.76
2018-07-10T05:20:59.917Z,1007.73
2018-07-10T05:21:59.918Z,1007.75
2018-07-10T05:22:59.952Z,1007.73
2018-07-10T05:23:59.917Z,1007.73
2018-07-10T05:24:59.917Z,1007.69
2018-07-10T05:25:59.917Z,1007.70
2018-07-10T05:26:59.916Z,1007.65
2018-07-10T05:27:59.917Z,1007.64
2018-07-10T05:28:59.995Z,1007.60
2018-07-10T05:29:59.917Z,1007.57
2018-07-10T05:30:59.920Z,1007.59
2018-07-10T05:31:59.917Z,1007.59
2018-07-10T05:32:59.918Z,1007.59
2018-07-10T05:33:59.916Z,1007.56
2018-07-10T05:34:59.918Z,1007.55
2018-07-10T05:35:59.918Z,1007.54
2018-07-10T05:36:59.918Z,1007.54
2018-07-10T05:37:59.918Z,1007.56
2018-07-10T05:38:59.917Z,1007.50
2018-07-10T05:39:59.918Z,1007.52
2018-07-10T05:40:59.918Z,1007.45
2018-07-10T05:41:59.918Z,1007.53
2018-07-10T05:42:59.919Z,1007.48
2018-07-10T05:43:59.919Z,1007.49
2018-07-10T05:44:59.919Z,1007.48
2018-07-10T05:45:59.919Z,1007.49
2018-07-10T05:46:59.919Z,1007.42
2018-07-10T05:47:59.919Z,1007.46
2018-07-10T05:48:59.926Z,1007.49
2018-07-10T05:49:59.921Z,1007.47
2018-07-10T05:50:59.919Z,1007.53
2018-07-10T05:51:59.931Z,1007.54
2018-07-10T05:52:59.920Z,1007.56
2018-07-10T05:53:59.921Z,1007.57
2018-07-10T05:54:59.921Z,1007.54
2018-07-10T05:55:59.922Z,1007.53
2018-07-10T05:56:59.922Z,1007.50
2018-07-10T05:57:59.921Z,1007.51
2018-07-10T05:58:59.923Z,1007.50
2018-07-10T05:59:59.923Z,1007.51
2018-07-10T06:00:59.923Z,1007.48
2018-07-10T06:01:59.927Z,1007.52
2018-07-10T06:02:59.927Z,1007.48
2018-07-10T06:03:59.925Z,1007.39
2018-07-10T06:04:59.926Z,1007.46
2018-07-10T06:05:59.926Z,1007.41
2018-07-10T06:06:59.928Z,1007.36
2018-07-10T06:07:59.927Z,1007.47
2018-07-10T06:08:59.925Z,1007.41
2018-07-10T06:09:59.933Z,1007.41
2018-07-10T06:10:59.927Z,1007.39
2018-07-10T06:11:59.932Z,1007.41
2018-07-10T06:12:59.929Z,1007.41
2018-07-10T06:13:59.981Z,1007.47
2018-07-10T06:14:59.930Z,1007.43
2018-07-10T06:15:59.930Z,1007.49
2018-07-10T06:16:59.930Z,1007.42
2018-07-10T06:17:59.930Z,1007.48
2018-07-10T06:18:59.931Z,1007.44
2018-07-10T06:19:59.930Z,1007.42
2018-07-10T06:20:59.931Z,1007.53
2018-07-10T06:21:59.935Z,1007.40
2018-07-10T06:22:59.931Z,1007.55
2018-07-10T06:23:59.933Z,1007.42
2018-07-10T06:24:59.931Z,1007.38
2018-07-10T06:25:59.931Z,1007.45
2018-07-10T06:26:59.941Z,1007.40
2018-07-10T06:27:59.933Z,1007.40
2018-07-10T06:28:59.933Z,1007.41
2018-07-10T06:29:59.933Z,1007.35
2018-07-10T06:30:59.933Z,1007.38
2018-07-10T06:31:59.935Z,1007.40
2018-07-10T06:32:59.933Z,1007.37
2018-07-10T06:33:59.934Z,1007.39
2018-07-10T06:34:59.939Z,1007.40
2018-07-10T06:35:59.935Z,1007.32
2018-07-10T06:36:59.934Z,1007.34
2018-07-10T06:37:59.934Z,1007.31
2018-07-10T06:38:59.935Z,1007.32
2018-07-10T06:39:59.935Z,1007.27
2018-07-10T06:40:59.936Z,1007.26
2018-07-10T06:41:59.934Z,1007.35
2018-07-10T06:42:59.938Z,1007.32
2018-07-10T06:43:59.935Z,1007.31
2018-07-10T06:44:59.934Z,1007.27
2018-07-10T06:45:59.938Z,1007.30
2018-07-10T06:46:59.936Z,1007.27
2018-07-10T06:47:59.937Z,1007.20
2018-07-10T06:48:59.937Z,1007.27
2018-07-10T06:49:59.937Z,1007.16
2018-07-10T06:50:59.939Z,1007.20
2018-07-10T06:51:59.938Z,1007.17
2018-07-10T06:53:00.247Z,1007.16
2018-07-10T06:53:59.938Z,1007.19
2018-07-10T06:54:59.938Z,1007.12
2018-07-10T06:55:59.939Z,1007.12
2018-07-10T06:56:59.938Z,1007.18
2018-07-10T06:57:59.938Z,1007.17
2018-07-10T06:58:59.941Z,1007.12
2018-07-10T06:59:59.940Z,1007.10
2018-07-10T07:00:59.947Z,1007.12
2018-07-10T07:01:59.941Z,1007.13
2018-07-10T07:02:59.942Z,1007.12
2018-07-10T07:03:59.942Z,1007.11
2018-07-10T07:04:59.942Z,1007.14
2018-07-10T07:05:59.942Z,1007.14
2018-07-10T07:06:59.943Z,1007.11
2018-07-10T07:07:59.993Z,1007.12
2018-07-10T07:08:59.944Z,1007.14
2018-07-10T07:09:59.946Z,1007.04
2018-07-10T07:10:59.949Z,1007.00
2018-07-10T07:11:59.947Z,1007.10
2018-07-10T07:12:59.947Z,1007.07
2018-07-10T07:13:59.948Z,1007.05
2018-07-10T07:14:59.949Z,1007.04
2018-07-10T07:15:59.952Z,1007.04
2018-07-10T07:16:59.952Z,1007.08
2018-07-10T07:17:59.950Z,1006.98
2018-07-10T07:18:59.950Z,1006.98
2018-07-10T07:19:59.951Z,1006.98
2018-07-10T07:20:59.950Z,1007.00
2018-07-10T07:21:59.953Z,1006.97
2018-07-10T07:22:59.951Z,1006.95
2018-07-10T07:23:59.952Z,1006.96
2018-07-10T07:24:59.952Z,1006.95
2018-07-10T07:25:59.952Z,1006.95
2018-07-10T07:26:59.953Z,1006.97
2018-07-10T07:27:59.953Z,1006.92
2018-07-10T07:28:59.953Z,1006.88
2018-07-10T07:29:59.954Z,1006.89
2018-07-10T07:30:59.953Z,1006.93
2018-07-10T07:31:59.956Z,1006.93
2018-07-10T07:32:59.954Z,1006.88
2018-07-10T07:33:59.954Z,1006.83
2018-07-10T07:34:59.983Z,1006.84
2018-07-10T07:35:59.955Z,1006.82
2018-07-10T07:36:59.954Z,1006.83
2018-07-10T07:37:59.955Z,1006.82
2018-07-10T07:38:59.955Z,1006.84
2018-07-10T07:39:59.955Z,1006.82
2018-07-10T07:40:59.953Z,1006.77
2018-07-10T07:41:59.957Z,1006.78
2018-07-10T07:42:59.955Z,1006.75
2018-07-10T07:44:00.030Z,1006.81
2018-07-10T07:44:59.956Z,1006.79
2018-07-10T07:45:59.956Z,1006.78
2018-07-10T07:46:59.956Z,1006.76
2018-07-10T07:47:59.957Z,1006.73
2018-07-10T07:48:59.959Z,1006.72
2018-07-10T07:49:59.957Z,1006.72
2018-07-10T07:50:59.956Z,1006.72
2018-07-10T07:51:59.958Z,1006.65
2018-07-10T07:52:59.956Z,1006.66
2018-07-10T07:53:59.958Z,1006.64
2018-07-10T07:54:59.957Z,1006.67
2018-07-10T07:55:59.957Z,1006.65
2018-07-10T07:56:59.957Z,1006.63
2018-07-10T07:57:59.956Z,1006.67
2018-07-10T07:58:59.960Z,1006.70
2018-07-10T07:59:59.958Z,1006.61
2018-07-10T08:00:59.959Z,1006.63
2018-07-10T08:01:59.958Z,1006.64
2018-07-10T08:02:59.957Z,1006.62
2018-07-10T08:03:59.965Z,1006.59
2018-07-10T08:04:59.956Z,1006.55
2018-07-10T08:05:59.957Z,1006.57
2018-07-10T08:06:59.957Z,1006.56
2018-07-10T08:07:59.958Z,1006.51
2018-07-10T08:08:59.957Z,1006.53
2018-07-10T08:09:59.957Z,1006.53
2018-07-10T08:10:59.957Z,1006.51
2018-07-10T08:11:59.957Z,1006.49
2018-07-10T08:12:59.957Z,1006.50
2018-07-10T08:13:59.958Z,1006.50
2018-07-10T08:14:59.957Z,1006.50
2018-07-10T08:15:59.958Z,1006.48
2018-07-10T08:16:59.961Z,1006.46
2018-07-10T08:17:59.957Z,1006.44
2018-07-10T08:18:59.958Z,1006.40
2018-07-10T08:19:59.958Z,1006.43
2018-07-10T08:20:59.956Z,1006.45
2018-07-10T08:21:59.957Z,1006.42
2018-07-10T08:22:59.958Z,1006.42
2018-07-10T08:23:59.958Z,1006.37
2018-07-10T08:24:59.958Z,1006.41
2018-07-10T08:25:59.957Z,1006.38
2018-07-10T08:26:59.959Z,1006.35
2018-07-10T08:27:59.959Z,1006.36
2018-07-10T08:28:59.960Z,1006.32
2018-07-10T08:29:59.960Z,1006.35
2018-07-10T08:30:59.961Z,1006.29
2018-07-10T08:31:59.961Z,1006.26
2018-07-10T08:32:59.960Z,1006.33
2018-07-10T08:34:00.063Z,1006.27
2018-07-10T08:34:59.962Z,1006.25
2018-07-10T08:35:59.962Z,1006.23
2018-07-10T08:36:59.962Z,1006.20
2018-07-10T08:37:59.963Z,1006.24
2018-07-10T08:38:59.964Z,1006.32
2018-07-10T08:39:59.967Z,1006.19
2018-07-10T08:40:59.966Z,1006.09
2018-07-10T08:41:59.965Z,1006.20
2018-07-10T08:42:59.968Z,1006.12
2018-07-10T08:43:59.967Z,1006.17
2018-07-10T08:44:59.969Z,1006.09
2018-07-10T08:45:59.968Z,1006.12
2018-07-10T08:46:59.969Z,1006.16
2018-07-10T08:47:59.972Z,1006.20
2018-07-10T08:48:59.970Z,1006.15
2018-07-10T08:49:59.971Z,1006.18
2018-07-10T08:50:59.975Z,1006.11
2018-07-10T08:51:59.973Z,1006.06
2018-07-10T08:52:59.973Z,1006.10
2018-07-10T08:53:59.974Z,1006.09
2018-07-10T08:54:59.975Z,1006.07
2018-07-10T08:55:59.975Z,1006.03
2018-07-10T08:56:59.977Z,1006.08
2018-07-10T08:57:59.978Z,1006.10
2018-07-10T08:58:59.979Z,1006.06
2018-07-10T08:59:59.980Z,1006.09
2018-07-10T09:00:59.979Z,1006.06
2018-07-10T09:01:59.982Z,1006.09
2018-07-10T09:02:59.981Z,1006.04
2018-07-10T09:03:59.984Z,1006.04
2018-07-10T09:04:59.983Z,1006.06
2018-07-10T09:05:59.985Z,1006.04
2018-07-10T09:06:59.985Z,1006.02
2018-07-10T09:08:00.037Z,1006.04
2018-07-10T09:08:59.986Z,1005.95
2018-07-10T09:09:59.988Z,1005.97
2018-07-10T09:10:59.988Z,1005.96
2018-07-10T09:11:59.990Z,1005.97
2018-07-10T09:12:59.989Z,1005.95
2018-07-10T09:14:00.080Z,1005.97
2018-07-10T09:14:59.995Z,1005.93
2018-07-10T09:15:59.992Z,1005.94
2018-07-10T09:16:59.991Z,1005.92
2018-07-10T09:17:59.993Z,1005.90
2018-07-10T09:18:59.992Z,1005.86
2018-07-10T09:19:59.995Z,1005.82
2018-07-10T09:20:59.994Z,1005.81
2018-07-10T09:21:59.995Z,1005.83
2018-07-10T09:22:59.996Z,1005.77
2018-07-10T09:24:00.000Z,1005.80
2018-07-10T09:24:59.997Z,1005.81
2018-07-10T09:25:59.998Z,1005.79
2018-07-10T09:26:59.999Z,1005.78
2018-07-10T09:28:00.001Z,1005.78
2018-07-10T09:28:59.999Z,1005.76
2018-07-10T09:30:00.001Z,1005.78
2018-07-10T09:31:00.000Z,1005.80
2018-07-10T09:32:00.003Z,1005.87
2018-07-10T09:33:00.001Z,1005.80
2018-07-10T09:34:00.015Z,1005.81
2018-07-10T09:35:00.004Z,1005.83
2018-07-10T09:36:00.020Z,1005.75
2018-07-10T09:37:00.011Z,1005.76
2018-07-10T09:38:00.013Z,1005.71
2018-07-10T09:39:00.009Z,1005.65
2018-07-10T09:40:00.077Z,1005.72
2018-07-10T09:41:00.008Z,1005.64
2018-07-10T09:42:00.010Z,1005.65
2018-07-10T09:43:00.011Z,1005.76
2018-07-10T09:44:00.082Z,1005.75
2018-07-10T09:45:00.053Z,1005.68
2018-07-10T09:46:00.031Z,1005.64
2018-07-10T09:47:00.052Z,1005.68
2018-07-10T09:48:00.028Z,1005.67
2018-07-10T09:49:00.017Z,1005.66
2018-07-10T09:50:00.020Z,1005.73
2018-07-10T09:51:00.020Z,1005.74
2018-07-10T09:52:00.027Z,1005.76
2018-07-10T09:53:00.027Z,1005.80
2018-07-10T09:54:00.019Z,1005.73
2018-07-10T09:55:00.155Z,1005.75
2018-07-10T09:56:00.027Z,1005.73
2018-07-10T09:57:00.022Z,1005.73
2018-07-10T09:58:00.027Z,1005.73
2018-07-10T09:59:00.024Z,1005.70
2018-07-10T10:00:00.039Z,1005.69
2018-07-10T10:01:00.032Z,1005.59
2018-07-10T10:02:00.111Z,1005.65
2018-07-10T10:03:00.028Z,1005.56
2018-07-10T10:04:00.027Z,1005.56
2018-07-10T10:05:00.052Z,1005.53
2018-07-10T10:06:00.029Z,1005.56
2018-07-10T10:07:00.030Z,1005.54
2018-07-10T10:08:00.031Z,1005.54
2018-07-10T10:09:00.032Z,1005.53
2018-07-10T10:10:00.033Z,1005.52
2018-07-10T10:11:00.032Z,1005.56
2018-07-10T10:12:00.034Z,1005.61
2018-07-10T10:13:00.033Z,1005.60
2018-07-10T10:14:00.033Z,1005.57
2018-07-10T10:15:00.040Z,1005.58
2018-07-10T10:16:00.038Z,1005.57
2018-07-10T10:17:00.035Z,1005.53
2018-07-10T10:18:00.036Z,1005.57
2018-07-10T10:19:00.036Z,1005.53
2018-07-10T10:20:00.049Z,1005.55
2018-07-10T10:21:00.042Z,1005.51
2018-07-10T10:22:00.040Z,1005.50
2018-07-10T10:23:00.039Z,1005.50
2018-07-10T10:24:00.040Z,1005.52
2018-07-10T10:25:00.043Z,1005.43
2018-07-10T10:26:00.040Z,1005.49
2018-07-10T10:27:00.042Z,1005.49
2018-07-10T10:28:00.043Z,1005.43
2018-07-10T10:29:00.048Z,1005.46
2018-07-10T10:30:00.081Z,1005.44
2018-07-10T10:31:00.046Z,1005.46
2018-07-10T10:32:00.046Z,1005.45
2018-07-10T10:33:00.048Z,1005.41
2018-07-10T10:34:00.047Z,1005.40
2018-07-10T10:35:00.051Z,1005.38
2018-07-10T10:36:00.049Z,1005.41
2018-07-10T10:37:00.051Z,1005.33
2018-07-10T10:38:00.050Z,1005.38
2018-07-10T10:39:00.050Z,1005.37
2018-07-10T10:40:00.054Z,1005.37
2018-07-10T10:41:00.052Z,1005.33
2018-07-10T10:42:00.055Z,1005.34
2018-07-10T10:43:00.054Z,1005.39
2018-07-10T10:44:00.058Z,1005.33
2018-07-10T10:45:00.068Z,1005.29
2018-07-10T10:46:00.056Z,1005.32
2018-07-10T10:47:00.061Z,1005.31
2018-07-10T10:48:00.057Z,1005.30
2018-07-10T10:49:00.059Z,1005.29
2018-07-10T10:50:00.063Z,1005.32
2018-07-10T10:51:00.062Z,1005.29
2018-07-10T10:52:00.072Z,1005.27
2018-07-10T10:53:00.063Z,1005.26
2018-07-10T10:54:00.064Z,1005.22
2018-07-10T10:55:00.072Z,1005.24
2018-07-10T10:56:00.067Z,1005.23
2018-07-10T10:57:00.066Z,1005.22
2018-07-10T10:58:00.069Z,1005.23
2018-07-10T10:59:00.069Z,1005.18
2018-07-10T11:00:00.095Z,1005.21
2018-07-10T11:01:00.074Z,1005.20
2018-07-10T11:02:00.072Z,1005.22
2018-07-10T11:03:00.080Z,1005.17
2018-07-10T11:04:00.074Z,1005.18
2018-07-10T11:05:00.075Z,1005.18
2018-07-10T11:06:00.085Z,1005.13
2018-07-10T11:07:00.077Z,1005.19
2018-07-10T11:08:00.078Z,1005.15
2018-07-10T11:09:00.079Z,1005.17
2018-07-10T11:10:00.080Z,1005.20
2018-07-10T11:11:00.082Z,1005.19
2018-07-10T11:12:00.084Z,1005.24
2018-07-10T11:13:00.112Z,1005.17
2018-07-10T11:14:00.085Z,1005.19
2018-07-10T11:15:00.090Z,1005.28
2018-07-10T11:16:00.089Z,1005.15
2018-07-10T11:17:00.089Z,1005.11
2018-07-10T11:18:00.090Z,1005.13
2018-07-10T11:19:00.092Z,1005.10
2018-07-10T11:20:00.095Z,1005.12
2018-07-10T11:21:00.096Z,1005.10
2018-07-10T11:22:00.098Z,1005.10
2018-07-10T11:23:00.099Z,1005.15
2018-07-10T11:24:00.100Z,1005.10
2018-07-10T11:25:00.101Z,1005.13
2018-07-10T11:26:00.103Z,1005.17
2018-07-10T11:27:00.105Z,1005.35
2018-07-10T11:28:00.108Z,1005.26
2018-07-10T11:29:00.108Z,1005.20
2018-07-10T11:30:00.116Z,1005.22
2018-07-10T11:31:00.113Z,1005.26
2018-07-10T11:32:00.117Z,1005.23
2018-07-10T11:33:00.120Z,1005.25
2018-07-10T11:34:00.121Z,1005.30
2018-07-10T11:35:00.124Z,1005.27
2018-07-10T11:36:00.126Z,1005.30
2018-07-10T11:37:00.129Z,1005.28
2018-07-10T11:38:00.131Z,1005.26
2018-07-10T11:39:00.149Z,1005.26
2018-07-10T11:40:00.138Z,1005.30
2018-07-10T11:41:00.141Z,1005.31
2018-07-10T11:42:00.143Z,1005.23
2018-07-10T11:43:00.146Z,1005.20
2018-07-10T11:44:00.149Z,1005.21
2018-07-10T11:45:00.152Z,1005.21
2018-07-10T11:46:00.155Z,1005.20
2018-07-10T11:47:00.159Z,1005.15
2018-07-10T11:48:00.162Z,1005.18
2018-07-10T11:49:00.172Z,1005.10
2018-07-10T11:50:00.167Z,1005.13
2018-07-10T11:51:00.172Z,1005.12
2018-07-10T11:52:00.175Z,1005.09
2018-07-10T11:53:00.177Z,1005.19
2018-07-10T11:54:00.180Z,1005.14
2018-07-10T11:55:00.184Z,1005.23
2018-07-10T11:56:00.188Z,1005.19
2018-07-10T11:57:00.191Z,1005.18
2018-07-10T11:58:00.195Z,1005.09
2018-07-10T11:59:00.198Z,1005.08
2018-07-10T12:00:00.203Z,1005.04
2018-07-10T12:01:00.204Z,1004.99
2018-07-10T12:02:00.283Z,1004.95
2018-07-10T12:03:00.212Z,1004.99
2018-07-10T12:04:00.215Z,1004.97
2018-07-10T12:05:00.265Z,1004.95
2018-07-10T12:06:00.220Z,1004.96